Time;durP1;ratioP1;P1;durP2;ratioP2;P2;SDS_P1;SDS_P2;PMS_P1;PMS_P2;Temp;Humidity;BMP_temperature;BMP_pressure;BME280_temperature;BME280_humidity;BME280_pressure;Samples;Min_cycle;Max_cycle;Signal;HPM_P1;HPM_P2
2023/06/05 00:00:57;;;;;;;9.73;6.40;;;13.10;99.90;;;;;;4953962;29;20186;-79
2023/06/05 00:03:24;;;;;;;9.63;6.38;;;13.00;99.90;;;;;;4953468;29;20198;-79
2023/06/05 00:05:50;;;;;;;10.07;6.70;;;13.00;99.90;;;;;;4921104;29;20574;-79
2023/06/05 00:08:16;;;;;;;9.88;6.55;;;13.10;99.90;;;;;;4921023;29;20187;-80
2023/06/05 00:10:42;;;;;;;11.25;6.32;;;13.10;99.90;;;;;;4920798;29;20186;-80
2023/06/05 00:13:08;;;;;;;14.02;6.47;;;13.00;99.90;;;;;;4936168;29;20182;-80
2023/06/05 00:15:35;;;;;;;10.52;6.55;;;13.00;99.90;;;;;;4936504;29;20194;-79
2023/06/05 00:18:03;;;;;;;11.02;6.50;;;13.00;99.90;;;;;;4921160;29;20274;-80
2023/06/05 00:20:30;;;;;;;8.27;6.50;;;13.00;99.90;;;;;;4934577;29;20532;-79
2023/06/05 00:22:55;;;;;;;8.57;6.35;;;13.00;99.90;;;;;;4953985;29;20189;-79
2023/06/05 00:25:22;;;;;;;9.88;6.50;;;13.00;99.90;;;;;;4936358;29;20222;-79
2023/06/05 00:27:47;;;;;;;9.43;6.03;;;13.00;99.90;;;;;;4936096;29;20197;-81
2023/06/05 00:30:14;;;;;;;9.55;6.35;;;13.00;99.90;;;;;;4952893;29;20645;-79
2023/06/05 00:32:42;;;;;;;12.13;6.40;;;13.00;99.90;;;;;;4953689;29;20205;-79
2023/06/05 00:35:08;;;;;;;9.50;6.43;;;13.00;99.90;;;;;;4918085;29;20191;-79
2023/06/05 00:37:34;;;;;;;9.77;6.13;;;13.00;99.90;;;;;;4936096;29;20186;-80
2023/06/05 00:40:00;;;;;;;9.02;5.47;;;13.00;99.90;;;;;;4935970;29;20625;-80
2023/06/05 00:42:26;;;;;;;8.25;5.90;;;13.10;99.90;;;;;;4936133;29;20190;-80
2023/06/05 00:44:52;;;;;;;8.80;6.05;;;13.10;99.90;;;;;;4904166;29;20183;-80
2023/06/05 00:47:19;;;;;;;10.23;5.80;;;13.10;99.90;;;;;;4936607;29;20194;-79
2023/06/05 00:49:45;;;;;;;11.93;6.60;;;13.10;99.90;;;;;;4920491;29;20179;-79
2023/06/05 00:52:11;;;;;;;8.52;6.25;;;13.10;99.90;;;;;;4953330;29;20244;-79
2023/06/05 00:54:38;;;;;;;14.20;6.45;;;13.10;99.90;;;;;;4936205;29;20214;-79
2023/06/05 00:57:06;;;;;;;12.60;7.07;;;13.10;99.90;;;;;;4936364;29;20202;-80
2023/06/05 00:59:34;;;;;;;9.10;6.65;;;13.10;99.90;;;;;;4936238;29;20230;-81
2023/06/05 01:02:02;;;;;;;9.90;5.82;;;13.10;99.90;;;;;;4936355;29;20253;-80
2023/06/05 01:04:28;;;;;;;12.32;6.53;;;13.10;99.90;;;;;;4953695;29;20266;-80
2023/06/05 01:06:57;;;;;;;11.52;6.75;;;13.10;99.90;;;;;;4935589;29;20222;-83
2023/06/05 01:09:27;;;;;;;9.77;6.80;;;13.10;99.90;;;;;;4949700;28;20197;-80
2023/06/05 01:12:03;;;;;;;15.68;6.70;;;13.10;99.90;;;;;;4926097;29;20274;-79
2023/06/05 01:14:32;;;;;;;12.75;6.78;;;13.10;99.90;;;;;;4955307;29;20632;-80
2023/06/05 01:17:02;;;;;;;11.55;6.28;;;13.10;99.90;;;;;;4937589;29;20192;-80
2023/06/05 01:19:30;;;;;;;10.85;6.47;;;13.10;99.90;;;;;;4937593;29;20260;-80
2023/06/05 01:21:59;;;;;;;12.27;6.35;;;13.10;99.90;;;;;;4939831;29;20193;-80
2023/06/05 01:24:27;;;;;;;12.00;6.38;;;13.10;99.90;;;;;;4924344;29;20191;-80
2023/06/05 01:27:08;;;;;;;13.98;6.55;;;13.10;99.90;;;;;;4939563;29;20198;-79
2023/06/05 01:30:14;;;;;;;8.48;6.05;;;13.10;99.90;;;;;;4941551;29;20218;-80
2023/06/05 01:32:44;;;;;;;13.70;5.97;;;13.10;99.90;;;;;;4901573;29;20600;-79
2023/06/05 01:35:16;;;;;;;9.77;6.15;;;13.10;99.90;;;;;;4920279;29;20187;-80
2023/06/05 01:37:48;;;;;;;9.70;6.07;;;13.10;99.90;;;;;;4947070;29;20269;-80
2023/06/05 01:40:16;;;;;;;9.63;5.53;;;13.10;99.90;;;;;;4955612;29;20179;-80
2023/06/05 01:42:44;;;;;;;12.98;6.45;;;13.10;99.90;;;;;;4957104;28;20212;-80
2023/06/05 01:45:11;;;;;;;9.88;6.88;;;13.10;99.90;;;;;;4956531;28;20397;-80
2023/06/05 01:47:39;;;;;;;10.00;6.68;;;13.00;99.90;;;;;;4953552;29;20189;-80
2023/06/05 01:50:08;;;;;;;16.05;6.85;;;13.00;99.90;;;;;;4922879;29;20194;-80
2023/06/05 01:52:35;;;;;;;11.02;6.60;;;13.00;99.90;;;;;;4936018;29;20266;-80
2023/06/05 01:55:04;;;;;;;10.10;7.30;;;13.10;99.90;;;;;;4920294;29;20191;-79
2023/06/05 01:57:33;;;;;;;12.82;7.38;;;13.00;99.90;;;;;;4945934;29;20182;-80
2023/06/05 02:00:04;;;;;;;13.13;7.15;;;13.00;99.90;;;;;;4939226;29;20183;-78
2023/06/05 02:02:49;;;;;;;10.93;7.00;;;13.00;99.90;;;;;;4956140;29;20264;-80
2023/06/05 02:05:20;;;;;;;12.13;7.45;;;13.00;99.90;;;;;;4939015;29;20206;-79
2023/06/05 02:07:48;;;;;;;12.00;7.38;;;13.10;99.90;;;;;;4939425;29;20194;-80
2023/06/05 02:10:15;;;;;;;11.20;7.50;;;13.00;99.90;;;;;;4923132;29;20179;-79
2023/06/05 02:12:42;;;;;;;11.55;8.15;;;13.00;99.90;;;;;;4956107;29;20179;-80
2023/06/05 02:15:13;;;;;;;14.48;8.18;;;13.00;99.90;;;;;;4938645;29;20261;-80
2023/06/05 02:17:44;;;;;;;15.43;7.82;;;13.00;99.90;;;;;;4938425;29;20293;-80
2023/06/05 02:20:15;;;;;;;15.10;7.60;;;13.00;99.90;;;;;;4947435;28;20236;-80
2023/06/05 02:22:44;;;;;;;10.55;7.28;;;13.00;99.90;;;;;;4938701;29;20330;-79
2023/06/05 02:25:12;;;;;;;15.38;7.32;;;13.00;99.90;;;;;;4938875;29;20214;-80
2023/06/05 02:27:38;;;;;;;14.50;7.30;;;13.00;99.90;;;;;;4955957;29;20183;-79
2023/06/05 02:30:06;;;;;;;9.20;6.55;;;13.00;99.90;;;;;;4938672;29;20265;-80
2023/06/05 02:32:32;;;;;;;13.80;7.20;;;13.00;99.90;;;;;;4950626;29;20203;-80
2023/06/05 02:34:58;;;;;;;11.02;7.22;;;13.00;99.90;;;;;;4903944;29;20591;-80
2023/06/05 02:37:28;;;;;;;11.90;6.85;;;13.00;99.90;;;;;;4929952;29;20187;-80
2023/06/05 02:39:54;;;;;;;11.38;6.60;;;13.00;99.90;;;;;;4922076;29;20619;-80
2023/06/05 02:42:20;;;;;;;11.15;6.55;;;13.00;99.90;;;;;;4938366;29;20633;-80
2023/06/05 02:44:46;;;;;;;8.73;5.85;;;13.00;99.90;;;;;;4938273;29;20540;-80
2023/06/05 02:47:13;;;;;;;11.02;7.03;;;13.00;99.90;;;;;;4925075;29;20242;-79
2023/06/05 02:49:39;;;;;;;14.32;7.13;;;13.00;99.90;;;;;;4940382;29;20258;-80
2023/06/05 02:52:05;;;;;;;11.10;7.15;;;13.00;99.90;;;;;;4926308;29;20211;-80
2023/06/05 02:54:31;;;;;;;11.52;6.68;;;12.90;99.90;;;;;;4934921;29;20618;-79
2023/06/05 02:57:01;;;;;;;11.77;7.38;;;12.80;99.90;;;;;;4922116;29;20558;-80
2023/06/05 02:59:31;;;;;;;10.48;6.88;;;12.90;99.90;;;;;;4937982;29;20257;-79
2023/06/05 03:01:58;;;;;;;10.23;6.85;;;12.90;99.90;;;;;;4918661;29;20278;-80
2023/06/05 03:04:24;;;;;;;10.55;6.32;;;12.90;99.90;;;;;;4931737;29;20302;-80
2023/06/05 03:06:56;;;;;;;11.32;6.43;;;12.90;99.90;;;;;;4919214;29;20223;-81
2023/06/05 03:09:24;;;;;;;9.15;6.55;;;12.90;99.90;;;;;;4937138;29;20281;-80
2023/06/05 03:11:52;;;;;;;10.60;6.82;;;12.90;99.90;;;;;;4922023;29;20179;-80
2023/06/05 03:14:19;;;;;;;10.73;6.18;;;12.90;99.90;;;;;;4921950;29;20187;-80
2023/06/05 03:16:45;;;;;;;11.77;6.50;;;12.90;99.90;;;;;;4937033;29;20214;-80
2023/06/05 03:19:14;;;;;;;8.18;5.78;;;12.90;99.90;;;;;;4954408;29;20226;-80
2023/06/05 03:21:43;;;;;;;7.00;5.47;;;12.90;99.90;;;;;;4937270;29;20201;-81
2023/06/05 03:24:14;;;;;;;8.80;6.22;;;12.90;99.90;;;;;;4936993;29;20194;-80
2023/06/05 03:26:43;;;;;;;8.05;5.72;;;12.90;99.90;;;;;;4954884;29;20257;-80
2023/06/05 03:29:10;;;;;;;8.15;5.93;;;12.90;99.90;;;;;;4921627;29;20214;-80
2023/06/05 03:31:37;;;;;;;8.60;5.68;;;12.90;99.90;;;;;;4921174;28;20191;-80
2023/06/05 03:34:03;;;;;;;8.95;5.72;;;12.90;99.90;;;;;;4937307;29;20185;-79
2023/06/05 03:36:33;;;;;;;8.18;5.57;;;12.90;99.90;;;;;;4921776;29;20649;-80
2023/06/05 03:39:02;;;;;;;8.45;6.00;;;12.90;99.90;;;;;;4918869;29;20670;-80
2023/06/05 03:41:28;;;;;;;7.35;5.30;;;12.90;99.90;;;;;;4946707;28;20336;-80
2023/06/05 03:43:56;;;;;;;9.80;5.68;;;12.90;99.90;;;;;;4921224;29;20178;-80
2023/06/05 03:46:23;;;;;;;9.00;6.40;;;12.90;99.90;;;;;;4921259;29;20218;-81
2023/06/05 03:48:58;;;;;;;12.20;5.97;;;12.90;99.90;;;;;;4937112;29;20194;-80
2023/06/05 03:51:30;;;;;;;10.93;6.60;;;12.90;99.90;;;;;;4938841;28;20174;-80
2023/06/05 03:53:58;;;;;;;12.93;6.25;;;12.80;99.90;;;;;;4953701;28;20186;-80
2023/06/05 03:56:28;;;;;;;9.15;6.40;;;12.80;99.90;;;;;;4956269;28;20190;-79
2023/06/05 03:58:55;;;;;;;8.93;6.25;;;12.90;99.90;;;;;;4941342;29;20553;-80
2023/06/05 04:01:22;;;;;;;8.35;6.03;;;12.90;99.90;;;;;;4946774;29;20190;-79
2023/06/05 04:03:48;;;;;;;9.52;6.13;;;12.90;99.90;;;;;;4953795;28;20194;-79
2023/06/05 04:06:14;;;;;;;7.32;6.10;;;12.90;99.90;;;;;;4921046;29;20265;-80
2023/06/05 04:08:40;;;;;;;8.05;6.10;;;12.90;99.90;;;;;;4921134;29;20648;-80
2023/06/05 04:11:06;;;;;;;9.48;6.38;;;12.90;99.90;;;;;;4935404;29;20197;-80
2023/06/05 04:13:32;;;;;;;9.32;6.50;;;12.90;99.90;;;;;;4924324;28;20582;-79
2023/06/05 04:15:58;;;;;;;7.95;5.82;;;12.90;99.90;;;;;;4958504;28;20190;-80
2023/06/05 04:18:24;;;;;;;9.27;6.00;;;12.90;99.90;;;;;;4936991;29;20190;-81
2023/06/05 04:20:52;;;;;;;9.55;6.28;;;12.90;99.90;;;;;;4936596;29;20222;-81
2023/06/05 04:23:18;;;;;;;10.05;6.50;;;12.90;99.90;;;;;;4919260;29;20242;-82
2023/06/05 04:25:45;;;;;;;8.55;6.63;;;12.90;99.90;;;;;;4938758;29;20286;-80
2023/06/05 04:28:12;;;;;;;9.38;6.82;;;13.00;99.90;;;;;;4937170;29;20238;-79
2023/06/05 04:30:38;;;;;;;10.38;6.45;;;13.00;99.90;;;;;;4936800;29;20201;-82
2023/06/05 04:33:06;;;;;;;9.52;6.70;;;12.90;99.90;;;;;;4920817;29;20191;-83
2023/06/05 04:35:34;;;;;;;10.15;6.90;;;12.90;99.90;;;;;;4920391;29;20191;-82
2023/06/05 04:38:00;;;;;;;11.05;6.38;;;12.90;99.90;;;;;;4917564;29;20225;-80
2023/06/05 04:40:27;;;;;;;6.70;5.30;;;12.90;99.90;;;;;;4936436;29;20192;-81
2023/06/05 04:42:54;;;;;;;6.30;5.00;;;12.90;99.90;;;;;;4950320;28;20191;-81
2023/06/05 04:45:22;;;;;;;7.75;5.30;;;12.90;99.90;;;;;;4926417;29;20495;-82
2023/06/05 04:47:49;;;;;;;7.65;4.97;;;12.90;99.90;;;;;;4942719;29;20186;-81
2023/06/05 04:50:26;;;;;;;6.40;4.63;;;12.90;99.90;;;;;;4926804;29;20280;-82
2023/06/05 04:52:57;;;;;;;8.75;4.95;;;12.90;99.90;;;;;;4927823;29;20611;-81
2023/06/05 04:55:23;;;;;;;6.63;4.63;;;13.00;99.90;;;;;;4942453;28;20205;-81
2023/06/05 04:57:53;;;;;;;5.00;4.22;;;13.00;99.90;;;;;;4927392;29;20186;-80
2023/06/05 05:00:19;;;;;;;7.05;4.40;;;13.00;99.90;;;;;;4911041;29;20186;-80
2023/06/05 05:02:45;;;;;;;6.78;3.90;;;13.00;99.90;;;;;;4926906;29;20197;-82
2023/06/05 05:05:13;;;;;;;5.53;4.10;;;13.00;99.90;;;;;;4943185;29;20221;-84
2023/06/05 05:07:42;;;;;;;5.43;3.80;;;13.10;99.90;;;;;;4942498;28;20190;-83
2023/06/05 05:10:10;;;;;;;6.38;3.55;;;13.10;99.90;;;;;;4926806;29;20182;-84
2023/06/05 05:12:36;;;;;;;5.70;3.95;;;13.20;99.90;;;;;;4926806;29;20595;-83
2023/06/05 05:15:04;;;;;;;7.25;4.10;;;13.20;99.90;;;;;;4926592;29;20326;-83
2023/06/05 05:17:33;;;;;;;5.35;4.10;;;13.20;99.90;;;;;;4941939;29;20187;-83
2023/06/05 05:19:59;;;;;;;6.53;4.25;;;13.30;99.90;;;;;;4910509;29;20238;-83
2023/06/05 05:22:26;;;;;;;4.93;3.70;;;13.30;99.90;;;;;;4942588;29;20182;-83
2023/06/05 05:24:54;;;;;;;4.80;3.60;;;13.40;99.90;;;;;;4942562;29;20198;-82
2023/06/05 05:27:19;;;;;;;5.05;3.60;;;13.40;99.90;;;;;;4942462;29;20270;-82
2023/06/05 05:29:45;;;;;;;6.72;3.50;;;13.40;99.90;;;;;;4942830;29;20182;-81
2023/06/05 05:32:11;;;;;;;5.35;3.63;;;13.40;99.90;;;;;;4960174;29;20186;-81
2023/06/05 05:34:37;;;;;;;6.45;3.83;;;13.40;99.90;;;;;;4941862;29;20331;-82
2023/06/05 05:37:03;;;;;;;5.78;3.95;;;13.50;99.90;;;;;;4959549;29;20205;-83
2023/06/05 05:39:30;;;;;;;8.20;4.43;;;13.50;99.90;;;;;;4939200;29;20195;-83
2023/06/05 05:41:56;;;;;;;6.28;3.70;;;13.50;99.90;;;;;;4974259;28;20517;-82
2023/06/05 05:44:22;;;;;;;10.35;3.70;;;13.50;99.90;;;;;;4974648;28;20232;-82
2023/06/05 05:46:48;;;;;;;9.80;3.50;;;13.60;99.90;;;;;;4941965;29;20670;-82
2023/06/05 05:49:14;;;;;;;9.70;4.10;;;13.60;99.90;;;;;;4959537;29;20663;-83
2023/06/05 05:51:40;;;;;;;6.28;3.33;;;13.60;99.90;;;;;;4958092;29;20186;-83
2023/06/05 05:54:06;;;;;;;4.57;3.30;;;13.70;99.90;;;;;;4926505;28;20585;-82
2023/06/05 05:56:33;;;;;;;6.93;3.35;;;13.70;99.90;;;;;;4936213;29;20254;-83
2023/06/05 05:58:59;;;;;;;6.03;4.00;;;13.70;99.90;;;;;;4937099;29;20275;-82
2023/06/05 06:01:25;;;;;;;4.88;3.30;;;13.70;99.90;;;;;;4945333;29;20273;-81
2023/06/05 06:03:51;;;;;;;4.30;3.17;;;13.80;99.90;;;;;;4956241;28;20209;-82
2023/06/05 06:06:17;;;;;;;4.40;3.00;;;13.80;99.90;;;;;;4954833;29;20646;-84
2023/06/05 06:08:43;;;;;;;3.53;2.85;;;13.90;99.90;;;;;;4952823;29;20186;-81
2023/06/05 06:11:09;;;;;;;6.38;3.20;;;13.90;99.90;;;;;;4954663;29;20198;-82
2023/06/05 06:13:34;;;;;;;5.15;2.83;;;13.90;99.90;;;;;;4939184;29;20577;-82
2023/06/05 06:16:02;;;;;;;3.22;2.92;;;14.00;99.90;;;;;;4951562;29;20611;-81
2023/06/05 06:18:27;;;;;;;6.95;3.50;;;14.00;99.90;;;;;;4923365;29;20582;-82
2023/06/05 06:20:53;;;;;;;3.35;3.05;;;14.00;99.90;;;;;;4922802;29;20234;-82
2023/06/05 06:23:19;;;;;;;4.75;2.97;;;14.10;99.90;;;;;;4923199;29;20206;-84
2023/06/05 06:25:46;;;;;;;5.00;3.13;;;14.10;99.90;;;;;;4923182;29;20305;-82
2023/06/05 06:28:12;;;;;;;4.03;2.80;;;14.10;99.90;;;;;;4923392;29;20190;-82
2023/06/05 06:30:37;;;;;;;5.47;2.95;;;14.10;99.90;;;;;;4939039;29;20183;-82
2023/06/05 06:33:07;;;;;;;5.25;3.03;;;14.20;99.90;;;;;;4938993;29;20604;-82
2023/06/05 06:35:34;;;;;;;4.18;2.78;;;14.20;99.90;;;;;;4938597;29;20238;-82
2023/06/05 06:38:00;;;;;;;6.97;3.30;;;14.30;99.90;;;;;;4922920;29;20312;-83
2023/06/05 06:40:28;;;;;;;3.95;3.05;;;14.30;99.90;;;;;;4938436;29;20262;-82
2023/06/05 06:42:55;;;;;;;4.05;2.80;;;14.30;99.90;;;;;;4955757;29;20249;-81
2023/06/05 06:45:41;;;;;;;7.45;3.10;;;14.30;99.90;;;;;;4938458;29;20301;-81
2023/06/05 06:48:07;;;;;;;3.33;3.00;;;14.40;99.90;;;;;;4922663;29;20289;-82
2023/06/05 06:50:32;;;;;;;4.15;3.33;;;14.40;99.90;;;;;;4923003;29;20186;-81
2023/06/05 06:52:58;;;;;;;5.72;3.50;;;14.40;99.90;;;;;;4938254;29;20217;-82
2023/06/05 06:55:24;;;;;;;5.95;3.38;;;14.40;99.90;;;;;;4971100;28;20175;-81
2023/06/05 06:57:50;;;;;;;5.18;3.17;;;14.50;99.90;;;;;;4938951;29;20273;-81
2023/06/05 07:00:16;;;;;;;3.90;2.88;;;14.50;99.90;;;;;;4970999;28;20246;-81
2023/06/05 07:02:43;;;;;;;4.68;3.10;;;14.60;99.90;;;;;;4939124;29;20171;-81
2023/06/05 07:05:09;;;;;;;5.20;3.08;;;14.50;99.90;;;;;;4939039;29;20241;-81
2023/06/05 07:07:35;;;;;;;3.90;2.80;;;14.50;99.90;;;;;;4954358;28;20186;-82
2023/06/05 07:10:01;;;;;;;5.22;3.22;;;14.50;99.90;;;;;;4952566;29;20214;-81
2023/06/05 07:12:27;;;;;;;7.05;3.30;;;14.70;99.90;;;;;;4922440;29;20533;-82
2023/06/05 07:14:54;;;;;;;5.97;3.10;;;14.80;99.90;;;;;;4922064;29;20182;-81
2023/06/05 07:17:21;;;;;;;5.50;3.50;;;14.90;99.90;;;;;;4949278;29;20186;-82
2023/06/05 07:19:46;;;;;;;5.90;3.42;;;15.00;99.90;;;;;;4937227;29;20289;-82
2023/06/05 07:23:18;;;;;;;5.15;3.10;;;15.10;99.90;;;;;;4923079;29;20190;-80
2023/06/05 07:25:45;;;;;;;5.03;3.60;;;15.10;99.90;;;;;;4953068;29;20206;-82
2023/06/05 07:28:15;;;;;;;5.13;3.13;;;15.30;99.90;;;;;;4921517;29;20178;-82
2023/06/05 07:30:43;;;;;;;5.05;3.47;;;15.50;99.90;;;;;;4953541;29;20193;-81
2023/06/05 07:33:09;;;;;;;3.75;3.00;;;15.60;99.90;;;;;;4937182;29;20266;-81
2023/06/05 07:51:39;;;;;;;5.40;3.15;;;16.00;99.90;;;;;;4954936;29;20470;-81
2023/06/05 07:58:05;;;;;;;5.65;3.45;;;16.20;99.90;;;;;;4954398;29;20181;-80
2023/06/05 08:00:31;;;;;;;4.43;2.97;;;16.40;99.90;;;;;;4937105;29;20630;-80
2023/06/05 08:02:58;;;;;;;5.65;2.97;;;16.50;99.90;;;;;;4921631;29;20178;-80
2023/06/05 08:05:24;;;;;;;4.50;3.00;;;16.60;99.90;;;;;;4936989;29;20227;-81
2023/06/05 08:07:50;;;;;;;3.72;3.00;;;16.70;99.90;;;;;;4938057;29;20530;-82
2023/06/05 08:10:35;;;;;;;6.68;2.92;;;16.80;99.90;;;;;;4921448;29;20634;-81
2023/06/05 08:13:01;;;;;;;4.38;3.35;;;16.90;99.90;;;;;;4937164;29;20199;-82
2023/06/05 08:15:26;;;;;;;5.20;3.00;;;16.90;99.90;;;;;;4921442;29;20218;-82
2023/06/05 08:17:53;;;;;;;5.15;3.17;;;16.90;99.90;;;;;;4936805;28;20193;-82
2023/06/05 08:20:20;;;;;;;4.47;3.22;;;16.90;99.90;;;;;;4953709;28;20226;-83
2023/06/05 08:22:45;;;;;;;5.88;3.42;;;17.00;99.90;;;;;;4905303;29;20183;-81
2023/06/05 08:25:11;;;;;;;5.07;3.17;;;17.00;99.90;;;;;;4920733;29;20614;-81
2023/06/05 08:27:37;;;;;;;3.60;3.10;;;17.00;99.90;;;;;;4920476;29;20604;-81
2023/06/05 08:30:03;;;;;;;4.55;3.22;;;17.00;99.90;;;;;;4953768;29;20266;-81
2023/06/05 08:32:29;;;;;;;4.82;3.20;;;17.10;99.90;;;;;;4921421;29;20281;-81
2023/06/05 08:34:55;;;;;;;4.82;3.13;;;17.20;99.90;;;;;;4936720;29;20270;-80
2023/06/05 08:37:21;;;;;;;4.38;2.92;;;17.30;99.90;;;;;;4904899;29;20182;-79
2023/06/05 08:39:47;;;;;;;6.10;3.85;;;17.50;99.90;;;;;;4953486;29;20190;-80
2023/06/05 08:42:17;;;;;;;7.03;3.15;;;17.60;99.90;;;;;;4936393;29;20186;-80
2023/06/05 08:44:47;;;;;;;5.20;3.25;;;17.70;99.90;;;;;;4906283;29;20187;-83
2023/06/05 08:47:14;;;;;;;6.60;4.28;;;17.80;99.90;;;;;;4953280;29;20276;-81
2023/06/05 08:49:41;;;;;;;5.22;3.65;;;17.90;99.90;;;;;;4952264;29;20202;-80
2023/06/05 08:52:08;;;;;;;5.03;3.50;;;18.00;99.90;;;;;;4936228;29;20238;-80
2023/06/05 08:54:38;;;;;;;6.28;3.40;;;18.10;99.90;;;;;;4952879;29;20171;-81
2023/06/05 09:00:34;;;;;;;4.00;3.47;;;18.30;99.90;;;;;;4952968;29;20209;-79
2023/06/05 09:03:00;;;;;;;4.30;3.13;;;18.40;99.90;;;;;;4936396;29;20680;-79
2023/06/05 09:05:26;;;;;;;8.05;3.58;;;18.40;99.90;;;;;;4953544;29;20226;-79
2023/06/05 09:07:52;;;;;;;5.57;3.33;;;18.40;99.90;;;;;;4920528;29;20187;-79
2023/06/05 09:26:55;;;;;;;5.00;3.47;;;18.60;99.90;;;;;;4913012;29;20645;-80
2023/06/05 09:37:08;;;;;;;4.50;3.22;;;19.00;99.90;;;;;;4916782;29;20168;-81
2023/06/05 09:39:36;;;;;;;4.18;3.20;;;19.10;99.90;;;;;;4900706;29;20315;-82
2023/06/05 09:42:02;;;;;;;3.65;3.08;;;19.20;99.60;;;;;;4885419;29;20199;-87
2023/06/05 09:44:30;;;;;;;5.07;3.40;;;19.20;99.30;;;;;;4924828;29;20739;-84
2023/06/05 09:46:58;;;;;;;5.45;3.10;;;19.20;99.20;;;;;;4956187;29;20282;-85
2023/06/05 09:49:32;;;;;;;4.70;3.30;;;19.30;99.10;;;;;;4940051;29;20613;-83
2023/06/05 09:55:56;;;;;;;4.78;3.28;;;19.40;99.00;;;;;;4957753;29;20651;-85
2023/06/05 09:58:22;;;;;;;6.10;3.40;;;19.50;98.70;;;;;;4939924;29;20182;-85
2023/06/05 10:00:48;;;;;;;5.97;3.50;;;19.60;98.50;;;;;;4923544;29;20637;-85
2023/06/05 10:03:19;;;;;;;4.50;3.10;;;19.60;98.00;;;;;;4940460;29;20300;-85
2023/06/05 10:05:45;;;;;;;5.68;3.40;;;19.60;97.90;;;;;;4940017;29;20206;-85
2023/06/05 10:08:15;;;;;;;5.10;3.03;;;19.60;97.70;;;;;;4948107;29;20202;-85
2023/06/05 10:10:42;;;;;;;4.95;3.10;;;19.50;97.80;;;;;;4957343;29;20630;-86
2023/06/05 10:13:10;;;;;;;3.75;2.90;;;19.60;97.70;;;;;;4939823;29;20179;-87
2023/06/05 10:15:38;;;;;;;3.55;2.90;;;19.60;97.50;;;;;;4908152;29;20237;-86
2023/06/05 10:18:05;;;;;;;4.55;2.70;;;19.60;97.30;;;;;;4940021;29;20189;-85
2023/06/05 10:20:35;;;;;;;4.32;2.70;;;19.70;97.40;;;;;;4940528;29;20305;-87
2023/06/05 10:23:01;;;;;;;4.63;2.88;;;19.80;97.40;;;;;;4939594;29;20193;-85
2023/06/05 10:25:29;;;;;;;4.07;2.65;;;19.90;97.10;;;;;;4939062;29;20214;-86
2023/06/05 10:28:19;;;;;;;3.95;2.53;;;20.00;96.80;;;;;;4937997;29;20182;-86
2023/06/05 10:31:08;;;;;;;6.05;2.60;;;20.10;96.40;;;;;;4941054;29;20314;-86
2023/06/05 10:34:21;;;;;;;3.85;2.80;;;20.20;96.20;;;;;;4920169;29;20190;-87
2023/06/05 10:36:54;;;;;;;4.25;2.80;;;20.20;96.00;;;;;;4883314;29;20635;-87
2023/06/05 10:39:23;;;;;;;5.35;2.67;;;20.20;96.00;;;;;;4939627;29;20186;-87
2023/06/05 10:41:51;;;;;;;3.97;2.58;;;20.30;96.00;;;;;;4922445;29;20202;-86
2023/06/05 10:44:17;;;;;;;3.78;2.40;;;20.20;95.90;;;;;;4923830;29;20190;-87
2023/06/05 10:46:42;;;;;;;4.97;2.63;;;20.20;95.90;;;;;;4955680;29;20556;-87
2023/06/05 10:49:09;;;;;;;5.88;2.67;;;20.20;96.00;;;;;;4955492;29;20238;-87
2023/06/05 10:51:40;;;;;;;3.70;2.40;;;20.30;95.90;;;;;;4955048;29;20175;-86
2023/06/05 10:54:07;;;;;;;5.05;2.38;;;20.40;95.70;;;;;;4935524;29;20195;-86
2023/06/05 10:57:05;;;;;;;5.57;2.72;;;20.60;95.50;;;;;;4923375;29;20673;-89
2023/06/05 10:59:35;;;;;;;3.92;2.63;;;20.70;95.20;;;;;;4940308;29;20167;-87
2023/06/05 11:02:16;;;;;;;4.65;2.88;;;20.80;95.00;;;;;;4939697;29;20182;-88
2023/06/05 11:04:42;;;;;;;2.40;2.20;;;20.80;94.50;;;;;;4925808;29;20530;-86
2023/06/05 11:07:26;;;;;;;5.25;2.45;;;20.70;94.40;;;;;;4957595;29;20293;-86
2023/06/05 11:10:20;;;;;;;3.15;2.35;;;20.70;94.10;;;;;;4956569;29;20179;-87
2023/06/05 11:13:05;;;;;;;;;;;;;;;;;;;;;
2023/06/05 11:15:56;;;;;;;7.10;2.67;;;20.80;94.30;;;;;;4954790;29;20667;-87
2023/06/05 11:18:33;;;;;;;4.28;2.65;;;20.80;94.10;;;;;;4923073;29;20183;-85
2023/06/05 11:21:01;;;;;;;4.78;2.38;;;20.80;93.90;;;;;;4937360;29;20230;-88
2023/06/05 11:23:29;;;;;;;3.88;2.75;;;20.80;93.90;;;;;;4957940;29;20631;-85
2023/06/05 11:25:57;;;;;;;3.70;2.25;;;20.70;93.70;;;;;;4973293;28;20217;-87
2023/06/05 11:28:44;;;;;;;4.90;2.67;;;20.70;94.10;;;;;;4974519;28;20175;-86
2023/06/05 11:31:10;;;;;;;3.10;2.65;;;20.60;93.80;;;;;;4956481;29;20506;-86
2023/06/05 11:33:36;;;;;;;3.88;2.67;;;20.60;93.90;;;;;;4971537;28;20199;-85
2023/06/05 11:36:05;;;;;;;4.65;3.05;;;20.70;94.10;;;;;;4973573;28;20210;-87
2023/06/05 11:38:31;;;;;;;3.65;3.00;;;20.80;93.80;;;;;;4959107;29;20186;-87
2023/06/05 11:40:57;;;;;;;4.50;2.33;;;20.80;93.60;;;;;;4958626;29;20265;-86
2023/06/05 11:43:23;;;;;;;4.57;2.53;;;20.80;93.50;;;;;;4957838;29;20222;-86
2023/06/05 11:45:55;;;;;;;7.18;2.92;;;20.90;93.50;;;;;;4941513;29;20222;-86
2023/06/05 11:48:21;;;;;;;4.25;2.72;;;21.00;93.30;;;;;;4923693;29;20194;-87
2023/06/05 11:50:57;;;;;;;4.32;2.38;;;21.00;93.00;;;;;;4958314;29;20179;-87
2023/06/05 11:53:24;;;;;;;4.70;2.88;;;21.10;92.90;;;;;;4943207;29;20209;-87
2023/06/05 11:58:25;;;;;;;4.00;2.60;;;21.10;92.80;;;;;;4942858;29;20179;-86
2023/06/05 12:00:51;;;;;;;6.13;2.60;;;21.20;92.80;;;;;;4927341;29;20201;-89
2023/06/05 12:03:21;;;;;;;3.80;2.67;;;21.20;92.70;;;;;;4928207;29;20186;-89
2023/06/05 12:05:48;;;;;;;4.10;2.45;;;21.20;92.50;;;;;;4942959;29;20237;-87
2023/06/05 12:08:30;;;;;;;3.72;2.83;;;21.20;92.40;;;;;;4927499;29;20611;-87
2023/06/05 12:10:57;;;;;;;5.03;2.60;;;21.20;92.30;;;;;;4958929;29;20193;-87
2023/06/05 12:13:43;;;;;;;4.90;2.83;;;21.20;92.20;;;;;;4934272;29;20175;-86
2023/06/05 12:16:09;;;;;;;3.13;2.67;;;21.10;92.20;;;;;;4922614;29;20634;-86
2023/06/05 12:18:35;;;;;;;4.82;2.65;;;21.10;92.30;;;;;;4939097;29;20198;-84
2023/06/05 12:21:02;;;;;;;9.82;2.50;;;21.10;92.30;;;;;;4923062;29;20578;-86
2023/06/05 12:23:32;;;;;;;6.43;2.75;;;21.10;92.40;;;;;;4923617;29;20180;-84
2023/06/05 12:26:01;;;;;;;6.50;2.75;;;21.10;92.40;;;;;;4938439;29;20195;-84
2023/06/05 12:28:31;;;;;;;3.95;3.00;;;21.10;92.20;;;;;;4939180;29;20245;-85
2023/06/05 12:30:57;;;;;;;3.92;2.80;;;21.10;92.40;;;;;;4923065;29;20182;-85
2023/06/05 12:33:24;;;;;;;4.43;2.70;;;21.10;92.40;;;;;;4924361;29;20175;-86
2023/06/05 12:36:28;;;;;;;4.97;3.08;;;21.10;92.50;;;;;;4923319;29;20179;-86
2023/06/05 12:38:55;;;;;;;6.57;3.08;;;21.10;92.60;;;;;;4846621;29;20656;-85
2023/06/05 12:41:21;;;;;;;5.10;3.13;;;21.20;92.50;;;;;;4910095;29;20195;-86
2023/06/05 12:43:59;;;;;;;7.28;3.03;;;21.20;92.40;;;;;;4939249;29;20187;-86
2023/06/05 12:46:25;;;;;;;6.68;2.83;;;21.20;92.20;;;;;;4921877;29;20219;-88
2023/06/05 12:48:51;;;;;;;3.47;2.78;;;21.10;92.30;;;;;;4921113;29;20187;-87
2023/06/05 12:51:17;;;;;;;4.93;2.67;;;21.00;92.30;;;;;;4921231;29;20237;-88
2023/06/05 12:53:43;;;;;;;5.13;3.05;;;21.00;92.30;;;;;;4903646;29;20187;-88
2023/06/05 12:56:11;;;;;;;5.45;3.58;;;21.10;92.40;;;;;;4934673;29;20183;-87
2023/06/05 12:58:37;;;;;;;5.13;3.53;;;21.00;92.60;;;;;;4935709;29;20187;-87
2023/06/05 13:01:03;;;;;;;5.22;3.72;;;21.00;92.80;;;;;;4919419;29;20583;-87
2023/06/05 13:03:29;;;;;;;5.78;3.45;;;21.10;92.70;;;;;;4920013;29;20642;-88
2023/06/05 13:05:55;;;;;;;8.10;3.60;;;21.00;92.60;;;;;;4921446;29;20276;-88
2023/06/05 13:08:21;;;;;;;6.28;4.00;;;21.10;92.50;;;;;;4939307;29;20225;-88
2023/06/05 13:10:47;;;;;;;7.97;3.17;;;21.00;92.30;;;;;;4923121;29;20266;-87
2023/06/05 13:13:14;;;;;;;5.55;3.53;;;21.00;92.30;;;;;;4922630;29;20304;-87
2023/06/05 13:15:40;;;;;;;6.05;3.10;;;20.90;92.50;;;;;;4923511;29;20294;-86
2023/06/05 13:18:07;;;;;;;8.07;3.75;;;20.90;92.60;;;;;;4923209;29;20544;-88
2023/06/05 13:20:33;;;;;;;6.53;3.45;;;20.90;92.60;;;;;;4929907;29;20188;-88
2023/06/05 13:22:59;;;;;;;5.75;3.60;;;20.90;92.50;;;;;;4930781;29;20239;-87
2023/06/05 13:25:25;;;;;;;6.78;3.42;;;20.90;92.50;;;;;;4925714;29;20215;-88
2023/06/05 13:27:51;;;;;;;8.13;3.80;;;20.80;92.50;;;;;;4947904;29;20176;-87
2023/06/05 13:30:17;;;;;;;6.10;4.07;;;20.90;92.60;;;;;;4912337;29;20194;-87
2023/06/05 13:32:44;;;;;;;5.75;4.03;;;20.80;92.70;;;;;;4930263;29;20191;-88
2023/06/05 13:35:10;;;;;;;7.35;4.10;;;20.80;92.80;;;;;;4930172;29;20614;-87
2023/06/05 13:37:40;;;;;;;6.00;4.38;;;20.80;92.80;;;;;;4931260;29;20179;-86
2023/06/05 13:40:09;;;;;;;7.63;4.07;;;20.80;92.70;;;;;;4929468;29;20198;-88
2023/06/05 13:42:36;;;;;;;6.25;4.22;;;20.70;92.70;;;;;;4946801;29;20235;-88
2023/06/05 13:45:02;;;;;;;8.98;4.13;;;20.60;92.70;;;;;;4930240;29;20179;-88
2023/06/05 13:47:28;;;;;;;5.40;3.95;;;20.60;92.90;;;;;;4952812;29;20221;-88